Abasto, Argentina
Current Conditions -  °F | °C
As of 3:00 PM on Wednesday 26 Nov 2014 (Local Time) from SAEZ Reporting Station
Clear Clear  
Wind Chill: 77°   Ceiling: Unl
Heat Index: 78°   Visibility: 6mi
Dew Point: 45°   Wind: 6mph
Humidity: 32%   Direction: 110°ESE
Pressure: 29.94"   Gusts: NA
Location:  34.96°S, 58.12°W
Report Text: SAEZ 261800Z 11005KT 060V150 CAVOK 25/07 Q1014
Loading
Personal Weather Stations






























Interactive Weather Map New forecast layout! Learn more

10-Day Weather Forecast

Advertisements
Track Severe Weather on mobile